createdAt,value
2023-05-21T00:00:38.820Z,27.05
2023-05-21T00:03:05.675Z,28.15
2023-05-21T00:05:32.858Z,27.40
2023-05-21T00:07:59.562Z,28.60
2023-05-21T00:10:26.823Z,28.23
2023-05-21T00:13:03.919Z,26.88
2023-05-21T00:15:30.594Z,26.60
2023-05-21T00:17:57.423Z,26.70
2023-05-21T00:20:27.138Z,26.10
2023-05-21T00:22:54.957Z,27.58
2023-05-21T00:25:24.485Z,27.73
2023-05-21T00:27:51.161Z,25.70
2023-05-21T00:30:20.545Z,26.88
2023-05-21T00:32:47.696Z,31.30
2023-05-21T00:37:41.092Z,27.27
2023-05-21T00:40:11.782Z,27.50
2023-05-21T00:42:44.536Z,28.58
2023-05-21T00:45:11.338Z,28.00
2023-05-21T00:47:40.845Z,28.73
2023-05-21T00:50:08.512Z,28.33
2023-05-21T00:52:42.361Z,28.33
2023-05-21T00:55:10.071Z,27.95
2023-05-21T00:57:40.125Z,26.85
2023-05-21T01:00:10.965Z,27.42
2023-05-21T01:02:41.182Z,28.42
2023-05-21T01:05:19.026Z,28.25
2023-05-21T01:07:46.840Z,27.75
2023-05-21T01:10:21.645Z,27.58
2023-05-21T01:12:48.964Z,27.15
2023-05-21T01:15:15.922Z,27.98
2023-05-21T01:17:52.212Z,27.88
2023-05-21T01:20:20.146Z,28.75
2023-05-21T01:22:56.305Z,27.98
2023-05-21T01:25:29.444Z,26.67
2023-05-21T01:27:56.412Z,27.95
2023-05-21T01:30:26.232Z,29.10
2023-05-21T01:32:56.513Z,29.52
2023-05-21T01:35:26.858Z,29.13
2023-05-21T01:37:58.247Z,28.15
2023-05-21T01:40:40.171Z,28.63
2023-05-21T01:43:07.404Z,29.48
2023-05-21T01:48:06.429Z,29.65
2023-05-21T01:50:34.412Z,28.00
2023-05-21T01:53:12.204Z,28.90
2023-05-21T01:55:42.189Z,28.95
2023-05-21T01:58:19.184Z,29.75
2023-05-21T02:00:49.801Z,29.33
2023-05-21T02:03:22.059Z,29.17
2023-05-21T02:05:49.382Z,29.75
2023-05-21T02:08:16.219Z,30.38
2023-05-21T02:10:47.225Z,28.60
2023-05-21T02:13:14.026Z,29.25
2023-05-21T02:15:40.827Z,29.60
2023-05-21T02:18:07.992Z,29.90
2023-05-21T02:23:04.052Z,28.98
2023-05-21T02:25:30.821Z,29.02
2023-05-21T02:28:01.210Z,29.75
2023-05-21T02:30:28.041Z,29.63
2023-05-21T02:32:55.183Z,30.08
2023-05-21T02:37:49.248Z,29.60
2023-05-21T02:40:16.503Z,30.30
2023-05-21T02:45:10.356Z,29.13
2023-05-21T02:50:10.026Z,29.73
2023-05-21T02:52:39.694Z,29.42
2023-05-21T02:55:06.735Z,29.23
2023-05-21T02:57:33.487Z,29.42
2023-05-21T03:00:00.161Z,30.63
2023-05-21T03:02:33.172Z,30.95
2023-05-21T03:05:00.928Z,28.83
2023-05-21T03:07:27.733Z,32.65
2023-05-21T03:09:54.846Z,31.38
2023-05-21T03:12:26.737Z,30.60
2023-05-21T03:14:53.535Z,33.47
2023-05-21T03:17:23.928Z,31.35
2023-05-21T03:19:51.065Z,30.38
2023-05-21T03:22:20.479Z,36.65
2023-05-21T03:24:47.854Z,31.67
2023-05-21T03:27:14.686Z,31.33
2023-05-21T03:29:48.002Z,35.80
2023-05-21T03:32:19.796Z,33.28
2023-05-21T03:34:46.548Z,35.22
2023-05-21T03:37:13.252Z,33.58
2023-05-21T03:39:46.089Z,32.75
2023-05-21T03:42:14.619Z,31.88
2023-05-21T03:44:44.677Z,32.03
2023-05-21T03:47:11.390Z,30.80
2023-05-21T03:49:38.120Z,31.42
2023-05-21T03:52:04.856Z,32.10
2023-05-21T03:54:31.562Z,32.83
2023-05-21T03:57:01.061Z,33.58
2023-05-21T03:59:28.208Z,32.13
2023-05-21T04:01:55.072Z,32.38
2023-05-21T04:04:21.886Z,31.95
2023-05-21T04:06:48.638Z,30.88
2023-05-21T04:09:17.290Z,33.60
2023-05-21T04:11:43.989Z,31.60
2023-05-21T04:14:10.906Z,31.50
2023-05-21T04:16:44.368Z,32.53
2023-05-21T04:19:11.221Z,33.05
2023-05-21T04:21:37.982Z,32.22
2023-05-21T04:24:07.532Z,32.35
2023-05-21T04:26:35.559Z,33.38
2023-05-21T04:29:07.686Z,32.00
2023-05-21T04:31:34.849Z,33.13
2023-05-21T04:36:47.046Z,32.60
2023-05-21T04:39:14.651Z,32.55
2023-05-21T04:41:41.383Z,33.03
2023-05-21T04:44:08.470Z,33.40
2023-05-21T04:46:40.334Z,35.58
2023-05-21T04:49:08.417Z,35.78
2023-05-21T04:51:38.098Z,33.33
2023-05-21T04:54:04.913Z,33.80
2023-05-21T04:56:37.167Z,34.25
2023-05-21T04:59:10.064Z,32.55
2023-05-21T05:01:38.708Z,31.85
2023-05-21T05:04:06.105Z,32.72
2023-05-21T05:06:33.249Z,37.50
2023-05-21T05:08:59.984Z,31.45
2023-05-21T05:11:29.864Z,33.42
2023-05-21T05:14:11.066Z,32.40
2023-05-21T05:16:38.488Z,32.20
2023-05-21T05:19:08.868Z,31.88
2023-05-21T05:21:35.611Z,33.53
2023-05-21T05:24:02.276Z,33.50
2023-05-21T05:26:35.005Z,32.58
2023-05-21T05:29:01.928Z,31.58
2023-05-21T05:31:28.645Z,32.30
2023-05-21T05:33:55.789Z,33.55
2023-05-21T05:39:08.029Z,33.38
2023-05-21T05:41:35.075Z,30.83
2023-05-21T05:44:02.160Z,37.58
2023-05-21T05:48:55.427Z,32.60
2023-05-21T05:51:22.247Z,31.52
2023-05-21T05:53:48.967Z,31.20
2023-05-21T05:56:17.403Z,33.35
2023-05-21T05:58:52.258Z,33.10
2023-05-21T06:01:19.404Z,30.83
2023-05-21T06:06:13.324Z,30.27
2023-05-21T06:08:40.804Z,30.05
2023-05-21T06:11:11.247Z,30.00
2023-05-21T06:13:38.030Z,30.67
2023-05-21T06:16:04.934Z,31.08
2023-05-21T06:18:31.728Z,31.50
2023-05-21T06:20:58.398Z,31.60
2023-05-21T06:23:25.141Z,30.77
2023-05-21T06:25:54.848Z,31.48
2023-05-21T06:28:21.898Z,29.75
2023-05-21T06:30:48.597Z,30.50
2023-05-21T06:33:15.425Z,32.22
2023-05-21T06:35:42.256Z,30.63
2023-05-21T06:38:08.934Z,31.17
2023-05-21T06:40:35.705Z,38.97
2023-05-21T06:43:14.919Z,31.55
2023-05-21T06:45:41.790Z,31.63
2023-05-21T06:50:35.273Z,29.38
2023-05-21T06:53:01.978Z,30.38
2023-05-21T06:55:28.712Z,29.17
2023-05-21T06:57:55.456Z,30.55
2023-05-21T07:00:22.157Z,42.75
2023-05-21T07:02:51.599Z,32.17
2023-05-21T07:05:27.311Z,32.58
2023-05-21T07:07:54.155Z,30.95
2023-05-21T07:10:20.853Z,31.92
2023-05-21T07:12:47.562Z,29.48
2023-05-21T07:15:14.628Z,29.10
2023-05-21T07:20:09.188Z,32.42
2023-05-21T07:22:41.577Z,28.98
2023-05-21T07:25:08.459Z,30.92
2023-05-21T07:30:02.164Z,29.33
2023-05-21T07:32:29.481Z,29.48
2023-05-21T07:34:58.915Z,29.95
2023-05-21T07:37:25.949Z,28.67
2023-05-21T07:42:19.495Z,30.10
2023-05-21T07:44:46.230Z,28.75
2023-05-21T07:47:12.924Z,28.13
2023-05-21T07:52:11.676Z,28.27
2023-05-21T07:59:58.761Z,27.17
2023-05-21T08:02:25.561Z,27.90
2023-05-21T08:07:20.464Z,26.35
2023-05-21T08:09:47.381Z,26.70
2023-05-21T08:14:43.495Z,27.73
2023-05-21T08:17:13.074Z,27.15
2023-05-21T08:19:39.833Z,26.73
2023-05-21T08:22:09.177Z,27.02
2023-05-21T08:24:38.906Z,26.88
2023-05-21T08:27:08.604Z,28.13
2023-05-21T08:29:38.665Z,32.40
2023-05-21T08:32:05.671Z,26.50
2023-05-21T08:34:32.628Z,25.85
2023-05-21T08:39:26.175Z,25.65
2023-05-21T08:42:00.531Z,27.60
2023-05-21T08:44:28.823Z,24.17
2023-05-21T08:46:57.423Z,26.13
2023-05-21T08:49:27.403Z,25.05
2023-05-21T08:51:55.183Z,24.58
2023-05-21T08:54:22.971Z,26.50
2023-05-21T08:57:04.860Z,26.55
2023-05-21T08:59:32.110Z,23.90
2023-05-21T09:02:00.235Z,23.48
2023-05-21T09:04:27.866Z,24.67
2023-05-21T09:06:55.126Z,25.25
2023-05-21T09:09:28.105Z,23.17
2023-05-21T09:11:54.808Z,24.95
2023-05-21T09:14:24.430Z,24.33
2023-05-21T09:16:51.188Z,25.23
2023-05-21T09:21:44.491Z,23.33
2023-05-21T09:24:14.500Z,24.77
2023-05-21T09:26:44.335Z,23.60
2023-05-21T09:29:13.469Z,24.08
2023-05-21T09:31:46.292Z,25.77
2023-05-21T09:34:14.402Z,23.85
2023-05-21T09:39:30.260Z,24.73
2023-05-21T09:41:57.590Z,22.63
2023-05-21T09:44:24.609Z,25.38
2023-05-21T09:46:54.201Z,24.15
2023-05-21T09:49:28.418Z,22.67
2023-05-21T09:51:58.799Z,23.15
2023-05-21T09:57:07.611Z,23.60
2023-05-21T09:59:39.103Z,23.33
2023-05-21T10:02:19.801Z,22.13
2023-05-21T10:04:49.887Z,23.95
2023-05-21T10:07:19.344Z,23.10
2023-05-21T10:09:59.306Z,21.48
2023-05-21T10:12:27.545Z,23.30
2023-05-21T10:14:59.576Z,22.40
2023-05-21T10:17:27.639Z,22.55
2023-05-21T10:19:56.125Z,22.20
2023-05-21T10:22:25.808Z,21.85
2023-05-21T10:24:52.780Z,22.27
2023-05-21T10:27:19.928Z,22.42
2023-05-21T10:29:46.934Z,21.42
2023-05-21T10:32:18.052Z,20.52
2023-05-21T10:34:49.364Z,22.67
2023-05-21T10:37:16.612Z,21.90
2023-05-21T10:39:43.619Z,23.95
2023-05-21T10:42:36.066Z,22.52
2023-05-21T10:45:05.364Z,22.63
2023-05-21T10:48:05.309Z,22.15
2023-05-21T10:50:50.285Z,22.17
2023-05-21T10:53:39.232Z,22.80
2023-05-21T10:56:11.949Z,22.58
2023-05-21T10:58:46.762Z,22.77
2023-05-21T11:01:14.397Z,22.52
2023-05-21T11:03:41.289Z,21.80
2023-05-21T11:06:11.649Z,22.30
2023-05-21T11:08:44.183Z,21.65
2023-05-21T11:11:10.866Z,20.63
2023-05-21T11:16:10.489Z,23.00
2023-05-21T11:18:40.543Z,21.75
2023-05-21T11:21:08.152Z,22.73
2023-05-21T11:23:53.065Z,22.02
2023-05-21T11:26:26.560Z,21.38
2023-05-21T11:29:05.271Z,21.05
2023-05-21T11:31:46.082Z,22.42
2023-05-21T11:34:28.891Z,21.40
2023-05-21T11:37:14.299Z,23.20
2023-05-21T11:39:40.993Z,22.17
2023-05-21T11:44:45.607Z,22.35
2023-05-21T11:47:18.594Z,22.95
2023-05-21T11:52:30.983Z,22.35
2023-05-21T11:54:58.405Z,23.25
2023-05-21T11:57:26.920Z,21.75
2023-05-21T11:59:53.685Z,22.85
2023-05-21T12:02:21.357Z,22.30
2023-05-21T12:04:49.108Z,23.30
2023-05-21T12:07:20.801Z,22.75
2023-05-21T12:09:51.135Z,22.92
2023-05-21T12:12:19.330Z,23.05
2023-05-21T12:14:47.941Z,22.98
2023-05-21T12:17:19.989Z,22.45
2023-05-21T12:19:46.994Z,23.35
2023-05-21T12:22:13.873Z,23.27
2023-05-21T12:24:44.193Z,21.35
2023-05-21T12:27:13.636Z,28.35
2023-05-21T12:29:42.685Z,22.40
2023-05-21T12:32:13.256Z,22.98
2023-05-21T12:34:54.747Z,21.60
2023-05-21T12:37:24.597Z,23.27
2023-05-21T12:39:52.006Z,22.67
2023-05-21T12:42:35.775Z,23.40
2023-05-21T12:45:06.916Z,22.75
2023-05-21T12:47:50.880Z,22.17
2023-05-21T12:50:20.610Z,21.98
2023-05-21T12:52:47.559Z,22.20
2023-05-21T12:55:18.318Z,22.70
2023-05-21T12:57:45.016Z,21.70
2023-05-21T13:00:12.263Z,22.08
2023-05-21T13:02:40.084Z,21.48
2023-05-21T13:05:10.306Z,22.90
2023-05-21T13:07:38.374Z,23.38
2023-05-21T13:10:08.000Z,22.48
2023-05-21T13:12:35.264Z,22.05
2023-05-21T13:15:03.275Z,22.77
2023-05-21T13:17:30.547Z,21.60
2023-05-21T13:20:26.398Z,22.38
2023-05-21T13:22:55.554Z,21.38
2023-05-21T13:25:29.070Z,21.73
2023-05-21T13:27:56.039Z,21.90
2023-05-21T13:32:56.061Z,21.67
2023-05-21T13:35:22.915Z,21.70
2023-05-21T13:40:16.928Z,22.08
2023-05-21T13:42:44.361Z,22.90
2023-05-21T13:45:12.301Z,21.77
2023-05-21T13:47:40.468Z,22.17
2023-05-21T13:50:08.048Z,21.50
2023-05-21T13:52:35.329Z,21.75
2023-05-21T13:55:02.191Z,21.17
2023-05-21T13:57:35.105Z,22.15
2023-05-21T14:02:35.334Z,21.25
2023-05-21T14:05:02.163Z,23.13
2023-05-21T14:07:34.931Z,21.90
2023-05-21T14:10:01.690Z,21.75
2023-05-21T14:12:28.753Z,22.17
2023-05-21T14:14:55.988Z,22.13
2023-05-21T14:17:22.782Z,22.08
2023-05-21T14:19:55.369Z,22.85
2023-05-21T14:22:22.033Z,21.52
2023-05-21T14:24:49.421Z,22.98
2023-05-21T14:27:16.621Z,22.20
2023-05-21T14:29:45.993Z,22.85
2023-05-21T14:32:13.232Z,22.25
2023-05-21T14:34:41.160Z,23.92
2023-05-21T14:37:10.521Z,23.65
2023-05-21T14:39:37.184Z,22.83
2023-05-21T14:42:04.883Z,21.60
2023-05-21T14:44:34.182Z,22.10
2023-05-21T14:47:00.940Z,22.30
2023-05-21T14:49:27.794Z,22.50
2023-05-21T14:51:57.416Z,22.05
2023-05-21T14:54:24.091Z,20.38
2023-05-21T14:56:50.784Z,21.50
2023-05-21T14:59:20.689Z,21.65
2023-05-21T15:01:47.468Z,21.85
2023-05-21T15:04:14.333Z,21.73
2023-05-21T15:06:50.217Z,22.10
2023-05-21T15:09:16.970Z,21.83
2023-05-21T15:11:47.678Z,22.15
2023-05-21T15:14:14.432Z,22.95
2023-05-21T15:16:41.124Z,22.05
2023-05-21T15:21:43.435Z,22.90
2023-05-21T15:24:11.424Z,21.38
2023-05-21T15:26:38.095Z,21.50
2023-05-21T15:31:39.046Z,21.92
2023-05-21T15:34:05.704Z,21.73
2023-05-21T15:36:32.459Z,22.70
2023-05-21T15:38:59.140Z,21.65
2023-05-21T15:41:26.320Z,21.17
2023-05-21T15:43:53.017Z,21.45
2023-05-21T15:46:19.702Z,21.95
2023-05-21T15:48:46.399Z,21.58
2023-05-21T15:51:13.112Z,22.65
2023-05-21T15:53:39.777Z,22.25
2023-05-21T15:56:10.491Z,22.40
2023-05-21T15:58:37.190Z,22.35
2023-05-21T16:01:03.911Z,21.65
2023-05-21T16:03:35.593Z,21.20
2023-05-21T16:06:02.714Z,21.70
2023-05-21T16:08:29.374Z,21.55
2023-05-21T16:10:59.044Z,21.65
2023-05-21T16:13:26.665Z,21.08
2023-05-21T16:15:53.414Z,21.55
2023-05-21T16:18:22.560Z,21.00
2023-05-21T16:20:58.077Z,21.05
2023-05-21T16:23:24.923Z,22.40
2023-05-21T16:25:57.752Z,22.02
2023-05-21T16:30:53.828Z,21.23
2023-05-21T16:33:20.837Z,21.88
2023-05-21T16:35:47.533Z,21.85
2023-05-21T16:38:14.354Z,21.35
2023-05-21T16:40:41.419Z,20.70
2023-05-21T16:43:08.702Z,21.08
2023-05-21T16:45:39.460Z,21.77
2023-05-21T16:48:06.509Z,21.58
2023-05-21T16:50:33.259Z,22.75
2023-05-21T16:53:02.752Z,24.33
2023-05-21T16:55:31.053Z,21.77
2023-05-21T16:57:58.016Z,22.25
2023-05-21T17:00:24.761Z,22.85
2023-05-21T17:02:52.149Z,23.52
2023-05-21T17:05:19.451Z,24.20
2023-05-21T17:07:46.111Z,23.38
2023-05-21T17:12:42.315Z,20.58
2023-05-21T17:15:09.252Z,22.60
2023-05-21T17:17:36.073Z,21.75
2023-05-21T17:20:02.992Z,22.13
2023-05-21T17:22:30.296Z,21.33
2023-05-21T17:24:57.042Z,21.90
2023-05-21T17:29:50.284Z,20.77
2023-05-21T17:32:21.132Z,21.85
2023-05-21T17:34:47.876Z,20.77
2023-05-21T17:40:02.378Z,21.45
2023-05-21T17:42:29.064Z,20.77
2023-05-21T17:44:55.815Z,20.98
2023-05-21T17:49:49.213Z,20.40
2023-05-21T17:54:46.466Z,20.70
2023-05-21T17:57:14.520Z,21.13
2023-05-21T17:59:45.250Z,21.13
2023-05-21T18:02:13.138Z,20.90
2023-05-21T18:04:39.856Z,21.70
2023-05-21T18:07:07.532Z,21.58
2023-05-21T18:09:34.464Z,22.55
2023-05-21T18:12:01.278Z,20.67
2023-05-21T18:14:28.319Z,21.42
2023-05-21T18:16:55.360Z,22.33
2023-05-21T18:21:50.830Z,20.13
2023-05-21T18:26:45.493Z,21.30
2023-05-21T18:29:13.280Z,21.25
2023-05-21T18:34:22.373Z,21.65
2023-05-21T18:39:46.473Z,21.70
2023-05-21T18:45:26.537Z,21.55
2023-05-21T18:51:13.638Z,20.98
2023-05-21T18:53:56.882Z,21.20
2023-05-21T19:05:13.659Z,21.67
2023-05-21T19:11:16.321Z,21.05
2023-05-21T19:13:55.530Z,21.23
2023-05-21T19:19:06.726Z,20.08
2023-05-21T19:21:33.731Z,20.23
2023-05-21T19:24:01.274Z,20.42
2023-05-21T19:26:31.621Z,21.33
2023-05-21T19:28:58.353Z,20.33
2023-05-21T19:31:27.673Z,20.73
2023-05-21T19:33:54.367Z,20.95
2023-05-21T19:36:21.297Z,19.75
2023-05-21T19:41:30.114Z,20.48
2023-05-21T19:43:56.899Z,21.08
2023-05-21T19:46:23.719Z,19.55
2023-05-21T19:51:19.434Z,20.25
2023-05-21T19:53:46.155Z,19.95
2023-05-21T19:56:12.870Z,20.65
2023-05-21T19:58:39.642Z,20.67
2023-05-21T20:03:56.816Z,21.13
2023-05-21T20:06:23.531Z,20.08
2023-05-21T20:08:53.016Z,21.30
2023-05-21T20:11:19.721Z,20.63
2023-05-21T20:13:50.720Z,20.70
2023-05-21T20:16:20.314Z,20.50
2023-05-21T20:18:47.599Z,20.70
2023-05-21T20:21:18.362Z,20.52
2023-05-21T20:23:45.436Z,22.25
2023-05-21T20:26:12.499Z,20.17
2023-05-21T20:28:39.179Z,21.42
2023-05-21T20:31:06.370Z,22.60
2023-05-21T20:33:33.620Z,21.92
2023-05-21T20:36:00.731Z,20.77
2023-05-21T20:38:27.593Z,20.45
2023-05-21T20:40:55.362Z,21.15
2023-05-21T20:43:22.351Z,21.02
2023-05-21T20:48:21.321Z,21.48
2023-05-21T20:50:49.943Z,22.58
2023-05-21T20:53:25.423Z,21.92
2023-05-21T20:55:54.855Z,21.73
2023-05-21T20:58:22.278Z,20.98
2023-05-21T21:00:50.721Z,20.77
2023-05-21T21:03:19.861Z,21.58
2023-05-21T21:05:46.622Z,20.77
2023-05-21T21:08:13.523Z,20.70
2023-05-21T21:10:42.574Z,20.92
2023-05-21T21:13:09.345Z,21.00
2023-05-21T21:15:36.559Z,20.75
2023-05-21T21:18:03.733Z,20.80
2023-05-21T21:20:30.664Z,20.92
2023-05-21T21:22:57.497Z,21.70
2023-05-21T21:25:24.226Z,21.25
2023-05-21T21:27:51.028Z,21.45
2023-05-21T21:30:24.992Z,21.02
2023-05-21T21:32:51.770Z,21.05
2023-05-21T21:35:18.627Z,22.15
2023-05-21T21:37:48.303Z,20.88
2023-05-21T21:40:15.078Z,21.73
2023-05-21T21:42:42.599Z,22.63
2023-05-21T21:45:09.666Z,21.50
2023-05-21T21:47:36.375Z,21.55
2023-05-21T21:50:05.769Z,21.98
2023-05-21T21:52:32.701Z,21.85
2023-05-21T21:57:28.131Z,21.17
2023-05-21T21:59:54.883Z,21.95
2023-05-21T22:02:22.223Z,20.80
2023-05-21T22:04:49.170Z,21.77
2023-05-21T22:09:45.199Z,20.95
2023-05-21T22:12:13.394Z,22.35
2023-05-21T22:15:03.840Z,21.02
2023-05-21T22:17:30.789Z,20.88
2023-05-21T22:22:24.572Z,21.08
2023-05-21T22:24:51.204Z,21.35
2023-05-21T22:27:17.973Z,21.98
2023-05-21T22:29:44.711Z,22.52
2023-05-21T22:32:11.419Z,22.17
2023-05-21T22:34:38.110Z,22.17
2023-05-21T22:37:04.939Z,21.50
2023-05-21T22:39:31.603Z,22.17
2023-05-21T22:42:01.250Z,21.50
2023-05-21T22:44:28.123Z,20.88
2023-05-21T22:47:00.486Z,22.27
2023-05-21T22:49:31.930Z,20.70
2023-05-21T22:52:05.284Z,21.80
2023-05-21T22:54:33.076Z,22.33
2023-05-21T22:57:05.038Z,21.08
2023-05-21T22:59:32.836Z,21.48
2023-05-21T23:01:59.837Z,20.25
2023-05-21T23:07:06.829Z,21.88
2023-05-21T23:09:33.583Z,20.60
2023-05-21T23:12:03.054Z,21.55
2023-05-21T23:14:29.765Z,20.92
2023-05-21T23:17:05.985Z,20.80
2023-05-21T23:19:39.449Z,20.67
2023-05-21T23:22:06.357Z,20.80
2023-05-21T23:24:35.303Z,21.63
2023-05-21T23:27:04.680Z,21.77
2023-05-21T23:29:31.410Z,21.92
2023-05-21T23:31:58.460Z,21.25
2023-05-21T23:34:26.064Z,20.38
2023-05-21T23:36:52.926Z,21.35
2023-05-21T23:39:19.714Z,20.95
2023-05-21T23:41:46.464Z,20.90
2023-05-21T23:44:13.211Z,20.88
2023-05-21T23:46:39.914Z,20.55
2023-05-21T23:49:06.624Z,21.05
2023-05-21T23:51:33.343Z,20.45
2023-05-21T23:54:00.570Z,20.60
2023-05-21T23:56:27.270Z,20.98
2023-05-21T23:58:53.998Z,20.45
